Impacts METAR Board INFO
IDs:

KTPA - Tampa Intl Arpt, FL, US

Updated at: 0448 UTC 12 Dec 2017
Potential Impact None Slight Moderate High
Time11/16Z 11/17Z 11/18Z 11/19Z 11/20Z 11/21Z 11/22Z 11/23Z 12/00Z 12/01Z 12/02Z 12/03Z 12/04Z
VIS10 10 10 10 10 10 10 10 10 10 10 10 10
CIG-- -- -- -- -- -- -- -- -- -- -- -- --
CoverCLRCLRCLRFEWFEWFEWFEWFEWCLRCLRCLRCLRCLR
FltCatVFRVFRVFRVFRVFRVFRVFRVFRVFRVFRVFRVFRVFR
WX--------------------------
WDir100350240250320320300310350000
WSpd8 6 7 6 8 8 6 4 4 3 0 0 0
WGst-- -- -- -- -- -- -- -- -- -- -- -- --
Raw hourly METARs
KTPA 111553Z 01008KT 10SM CLR 14/01 A3030 RMK AO2 SLP261 T01440006
KTPA 111653Z VRB06KT 10SM CLR 16/01 A3028 RMK AO2 SLP253 T01610011
KTPA 111753Z 35007KT 10SM CLR 17/01 A3024 RMK AO2 SLP239 T01720006 10172 20072 58027
KTPA 111853Z 24006KT 10SM FEW250 17/04 A3021 RMK AO2 SLP230 T01670039
KTPA 111953Z 25008KT 10SM FEW320 18/02 A3020 RMK AO2 SLP224 T01780022
KTPA 112053Z 32008KT 10SM FEW010 FEW340 18/01 A3019 RMK AO2 SLP222 FU FEW010 NE T01780006 56017
KTPA 112153Z 32006KT 10SM FEW340 16/00 A3019 RMK AO2 SLP224 T01610000
KTPA 112253Z 30004KT 10SM FEW330 14/06 A3020 RMK AO2 SLP226 T01390056
KTPA 112353Z 31004KT 10SM CLR 13/06 A3020 RMK AO2 SLP226 T01280056 10178 20128 51004
KTPA 120053Z 35003KT 10SM CLR 12/05 A3021 RMK AO2 SLP228 T01220050
KTPA 120153Z 00000KT 10SM CLR 12/05 A3020 RMK AO2 SLP226 T01220050
KTPA 120253Z 00000KT 10SM CLR 12/06 A3019 RMK AO2 SLP223 T01170056 58003
KTPA 120353Z 00000KT 10SM CLR 11/06 A3018 RMK AO2 SLP218 T01110056